Time;durP1;ratioP1;P1;durP2;ratioP2;P2;SDS_P1;SDS_P2;PMS_P1;PMS_P2;Temp;Humidity;BMP_temperature;BMP_pressure;BME280_temperature;BME280_humidity;BME280_pressure;Samples;Min_cycle;Max_cycle;Signal;HPM_P1;HPM_P2
2021/12/24 00:00:10;;;;;;;;;;;;;;;-144.99;100.00;52615.25;5064493;28;19984;-72
2021/12/24 00:02:37;;;;;;;;;;;;;;;-144.99;100.00;52623.38;5060783;28;20036;-72
2021/12/24 00:05:03;;;;;;;;;;;;;;;-144.99;100.00;52627.47;5063988;28;20064;-72
2021/12/24 00:07:30;;;;;;;;;;;;;;;-144.99;100.00;52625.44;5065398;28;19977;-75
2021/12/24 00:09:56;;;;;;;;;;;;;;;-144.99;100.00;52635.63;5060444;28;20079;-73
2021/12/24 00:12:25;;;;;;;;;;;;;;;-144.99;100.00;52594.84;5065206;28;19980;-73
2021/12/24 00:14:56;;;;;;;;;;;;;;;-144.99;100.00;52633.59;5065918;28;20031;-74
2021/12/24 00:17:28;;;;;;;;;;;;;;;-144.99;100.00;52615.25;5066476;28;19984;-76
2021/12/24 00:20:10;;;;;;;;;;;;;;;-144.99;100.00;52594.84;5063851;28;19987;-76
2021/12/24 00:23:07;;;;;;;;;;;;;;;-144.99;100.00;52643.78;5065565;28;20001;-77
2021/12/24 00:36:40;;;;;;;;;;;;;;;-144.99;100.00;52643.78;5064595;28;20070;-77
2021/12/24 00:39:06;;;;;;;;;;;;;;;-144.99;100.00;52629.50;5067574;28;19981;-77
2021/12/24 00:41:32;;;;;;;;;;;;;;;-144.99;100.00;52600.97;5068260;28;19997;-74
2021/12/24 00:43:59;;;;;;;;;;;;;;;-144.99;100.00;52603.00;5068369;28;19977;-76
2021/12/24 00:46:25;;;;;;;;;;;;;;;-144.99;100.00;52611.16;5068593;28;20044;-75
2021/12/24 00:48:53;;;;;;;;;;;;;;;-144.99;100.00;52570.38;5087166;28;19980;-79
2021/12/24 00:51:30;;;;;;;;;;;;;;;-144.99;100.00;52605.03;5083716;28;20087;-75
2021/12/24 00:56:40;;;;;;;;;;;;;;;-144.99;100.00;52656.00;5062149;28;20536;-76
2021/12/24 00:59:06;;;;;;;;;;;;;;;-144.99;100.00;52627.47;5068429;28;20018;-76
2021/12/24 01:01:33;;;;;;;;;;;;;;;-144.99;100.00;52629.50;5067470;28;19996;-76
2021/12/24 01:03:59;;;;;;;;;;;;;;;-144.99;100.00;52627.47;5067653;28;19976;-76
2021/12/24 01:06:27;;;;;;;;;;;;;;;-144.99;100.00;52598.94;5069403;28;20030;-74
2021/12/24 01:08:53;;;;;;;;;;;;;;;-144.99;100.00;52611.16;5065157;28;20011;-75
2021/12/24 01:11:20;;;;;;;;;;;;;;;-144.99;100.00;52603.00;5068038;28;19981;-76
2021/12/24 01:13:46;;;;;;;;;;;;;;;-144.99;100.00;52607.09;5061622;28;20482;-76
2021/12/24 01:16:21;;;;;;;;;;;;;;;-144.99;100.00;52582.63;5067955;28;20389;-76
2021/12/24 01:18:56;;;;;;;;;;;;;;;-144.99;100.00;52631.53;5064957;28;19980;-74
2021/12/24 01:21:36;;;;;;;;;;;;;;;-144.99;100.00;52627.47;5067611;28;20003;-75
2021/12/24 01:24:08;;;;;;;;;;;;;;;-144.99;100.00;52627.47;5087003;22;19996;-78
2021/12/24 01:26:40;;;;;;;;;;;;;;;-144.99;100.00;52576.50;5061329;28;20080;-79
2021/12/24 01:29:42;;;;;;;;;;;;;;;-144.99;100.00;52607.09;5053121;28;20023;-78
2021/12/24 01:37:57;;;;;;;;;;;;;;;-144.99;100.00;52609.13;5031432;28;20003;-78
2021/12/24 01:40:37;;;;;;;;;;;;;;;-144.99;100.00;52603.00;5032393;28;20393;-78
2021/12/24 01:43:03;;;;;;;;;;;;;;;-144.99;100.00;52627.47;5032307;28;20002;-78
2021/12/24 01:45:30;;;;;;;;;;;;;;;-144.99;100.00;52635.63;5029326;28;19978;-77
2021/12/24 01:47:58;;;;;;;;;;;;;;;-144.99;100.00;52598.94;5030600;28;20068;-77
2021/12/24 01:50:26;;;;;;;;;;;;;;;-144.99;100.00;52598.94;5030615;28;20380;-79
2021/12/24 01:52:54;;;;;;;;;;;;;;;-144.99;100.00;52603.00;5029050;28;20000;-78
2021/12/24 01:55:20;;;;;;;;;;;;;;;-144.99;100.00;52598.94;5029911;28;20439;-76
2021/12/24 01:57:48;;;;;;;;;;;;;;;-144.99;100.00;52629.50;5033413;28;19988;-78
2021/12/24 02:00:16;;;;;;;;;;;;;;;-144.99;100.00;52603.00;5029811;28;19982;-78
2021/12/24 02:02:43;;;;;;;;;;;;;;;-144.99;100.00;52627.47;5027119;28;20008;-79
2021/12/24 02:05:10;;;;;;;;;;;;;;;-144.99;100.00;52617.28;5028347;28;19984;-77
2021/12/24 02:07:36;;;;;;;;;;;;;;;-144.99;100.00;52619.31;5029465;28;20447;-78
2021/12/24 02:10:04;;;;;;;;;;;;;;;-144.99;100.00;52647.84;5027689;28;19992;-75
2021/12/24 02:12:34;;;;;;;;;;;;;;;-144.99;100.00;52590.78;5025145;28;20376;-76
2021/12/24 02:15:03;;;;;;;;;;;;;;;-144.99;100.00;52607.09;5028762;28;20035;-77
2021/12/24 02:17:52;;;;;;;;;;;;;;;-144.99;100.00;52594.84;5030321;28;19977;-77
2021/12/24 02:28:38;;;;;;;;;;;;;;;-144.99;100.00;52611.16;5028382;28;20039;-79
2021/12/24 02:31:06;;;;;;;;;;;;;;;-144.99;100.00;52590.78;5023665;28;20076;-78
2021/12/24 02:33:32;;;;;;;;;;;;;;;-144.99;100.00;52633.59;5029918;28;19989;-78
2021/12/24 02:36:00;;;;;;;;;;;;;;;-144.99;100.00;52586.69;5031112;28;20004;-77
2021/12/24 02:38:26;;;;;;;;;;;;;;;-144.99;100.00;52594.84;5028549;28;20394;-76
2021/12/24 02:40:53;;;;;;;;;;;;;;;-144.99;100.00;52645.81;5029348;28;19982;-76
2021/12/24 02:43:22;;;;;;;;;;;;;;;-144.99;100.00;52566.31;5029871;28;20013;-78
2021/12/24 02:45:50;;;;;;;;;;;;;;;-144.99;100.00;52594.84;5030886;28;19978;-76
2021/12/24 02:48:56;;;;;;;;;;;;;;;-144.99;100.00;52598.94;5029697;28;19977;-77
2021/12/24 02:54:17;;;;;;;;;;;;;;;-144.99;100.00;52611.16;5001889;28;20005;-78
2021/12/24 02:56:48;;;;;;;;;;;;;;;-144.99;100.00;52603.00;5031951;28;19977;-76
2021/12/24 02:59:17;;;;;;;;;;;;;;;-144.99;100.00;52623.38;5028982;28;19984;-78
2021/12/24 03:01:49;;;;;;;;;;;;;;;-144.99;100.00;52627.47;5028964;28;20023;-78
2021/12/24 03:04:16;;;;;;;;;;;;;;;-144.99;100.00;52625.44;5027403;28;20135;-76
2021/12/24 03:06:45;;;;;;;;;;;;;;;-144.99;100.00;52603.00;5029205;28;20090;-79
2021/12/24 03:09:16;;;;;;;;;;;;;;;-144.99;100.00;52615.25;5022468;28;20139;-73
2021/12/24 03:11:43;;;;;;;;;;;;;;;-144.99;100.00;52603.00;5034866;28;19990;-80
2021/12/24 03:14:10;;;;;;;;;;;;;;;-144.99;100.00;52586.69;5027251;28;19980;-77
2021/12/24 03:16:38;;;;;;;;;;;;;;;-144.99;100.00;52647.84;5029791;28;20015;-75
2021/12/24 03:19:04;;;;;;;;;;;;;;;-144.99;100.00;52651.94;5028295;28;20072;-77
2021/12/24 03:21:37;;;;;;;;;;;;;;;-144.99;100.00;52598.94;5028574;28;19958;-73
2021/12/24 03:26:51;;;;;;;;;;;;;;;-144.99;100.00;52558.16;5022232;28;20036;-75
2021/12/24 03:29:19;;;;;;;;;;;;;;;-144.99;100.00;52627.47;5028698;28;20355;-80
2021/12/24 03:31:46;;;;;;;;;;;;;;;-144.99;100.00;52580.59;5031886;28;19977;-77
2021/12/24 03:34:15;;;;;;;;;;;;;;;-144.99;100.00;52631.53;5028079;28;20056;-77
2021/12/24 03:36:41;;;;;;;;;;;;;;;-144.99;100.00;52631.53;5030586;28;19977;-75
2021/12/24 03:39:10;;;;;;;;;;;;;;;-144.99;100.00;52617.28;5025937;28;19982;-77
2021/12/24 03:41:36;;;;;;;;;;;;;;;-144.99;100.00;52611.16;5029286;28;19985;-77
2021/12/24 03:44:03;;;;;;;;;;;;;;;-144.99;100.00;52611.16;5029181;28;19997;-76
2021/12/24 03:46:36;;;;;;;;;;;;;;;-144.99;100.00;52607.09;5031977;28;19977;-75
2021/12/24 03:49:08;;;;;;;;;;;;;;;-144.99;100.00;52611.16;5022208;28;20463;-79
2021/12/24 03:51:44;;;;;;;;;;;;;;;-144.99;100.00;52600.97;5028235;28;19985;-78
2021/12/24 03:56:55;;;;;;;;;;;;;;;-144.99;100.00;52603.00;5030049;28;19989;-78
2021/12/24 03:59:22;;;;;;;;;;;;;;;-144.99;100.00;52631.53;5027526;28;19988;-74
2021/12/24 04:01:48;;;;;;;;;;;;;;;-144.99;100.00;52590.78;5026774;28;20570;-76
2021/12/24 04:04:15;;;;;;;;;;;;;;;-144.99;100.00;52558.16;5026723;28;20370;-77
2021/12/24 04:06:41;;;;;;;;;;;;;;;-144.99;100.00;52598.94;5027867;28;20064;-78
2021/12/24 04:09:08;;;;;;;;;;;;;;;-144.99;100.00;52562.25;5033806;28;19988;-76
2021/12/24 04:11:38;;;;;;;;;;;;;;;-144.99;100.00;52639.69;5032072;28;19982;-76
2021/12/24 04:14:04;;;;;;;;;;;;;;;-144.99;100.00;52611.16;5035073;28;19993;-78
2021/12/24 04:16:30;;;;;;;;;;;;;;;-144.99;100.00;52582.63;5031872;28;20117;-75
2021/12/24 04:19:14;;;;;;;;;;;;;;;-144.99;100.00;52611.16;5029238;28;19988;-75
2021/12/24 04:27:21;;;;;;;;;;;;;;;-144.99;100.00;52643.78;5004452;28;20243;-79
2021/12/24 04:29:48;;;;;;;;;;;;;;;-144.99;100.00;52603.00;5027802;28;19988;-77
2021/12/24 04:32:18;;;;;;;;;;;;;;;-144.99;100.00;52598.94;5040701;28;20158;-78
2021/12/24 04:34:48;;;;;;;;;;;;;;;-144.99;100.00;52641.72;5037452;28;20004;-78
2021/12/24 04:38:03;;;;;;;;;;;;;;;-144.99;100.00;52586.69;5038011;28;20008;-78
2021/12/24 04:51:28;;;;;;;;;;;;;;;-144.99;100.00;52653.97;5032229;28;19984;-77
2021/12/24 05:02:25;;;;;;;;;;;;;;;-144.99;100.00;52627.47;5037838;28;20068;-76
2021/12/24 05:04:56;;;;;;;;;;;;;;;-144.99;100.00;52607.09;5039243;28;19999;-77
2021/12/24 05:07:53;;;;;;;;;;;;;;;-144.99;100.00;52619.31;5029383;28;19977;-77
2021/12/24 05:10:21;;;;;;;;;;;;;;;-144.99;100.00;52639.69;5033128;28;19981;-75
2021/12/24 05:12:48;;;;;;;;;;;;;;;-144.99;100.00;52664.16;5031062;28;19997;-76
2021/12/24 05:15:16;;;;;;;;;;;;;;;-144.99;100.00;52598.94;5029245;28;19981;-77
2021/12/24 05:18:02;;;;;;;;;;;;;;;-144.99;100.00;52590.78;5030510;28;20007;-74
2021/12/24 05:23:13;;;;;;;;;;;;;;;-144.99;100.00;52631.53;5029331;28;20008;-75
2021/12/24 05:25:42;;;;;;;;;;;;;;;-144.99;100.00;52558.16;5031185;28;19984;-77
2021/12/24 05:28:09;;;;;;;;;;;;;;;-144.99;100.00;52639.69;5026693;28;19977;-77
2021/12/24 05:30:36;;;;;;;;;;;;;;;-144.99;100.00;52598.94;5031199;28;19977;-75
2021/12/24 05:33:03;;;;;;;;;;;;;;;-144.99;100.00;52631.53;5030663;28;20001;-78
2021/12/24 05:35:29;;;;;;;;;;;;;;;-144.99;100.00;52584.66;5029922;28;19977;-75
2021/12/24 05:37:56;;;;;;;;;;;;;;;-144.99;100.00;52615.25;5031331;28;19978;-77
2021/12/24 05:40:22;;;;;;;;;;;;;;;-144.99;100.00;52594.84;5028631;28;20416;-79
2021/12/24 05:42:48;;;;;;;;;;;;;;;-144.99;100.00;52635.63;5029643;28;20474;-79
2021/12/24 05:45:15;;;;;;;;;;;;;;;-144.99;100.00;52643.78;5022899;28;19984;-78
2021/12/24 05:47:43;;;;;;;;;;;;;;;-144.99;100.00;52615.25;5031412;28;20443;-78
2021/12/24 05:50:09;;;;;;;;;;;;;;;-144.99;100.00;52651.94;5029878;28;20260;-76
2021/12/24 05:52:36;;;;;;;;;;;;;;;-144.99;100.00;52643.78;5029474;28;19989;-78
2021/12/24 05:55:03;;;;;;;;;;;;;;;-144.99;100.00;52619.31;5026184;28;20543;-76
2021/12/24 05:57:29;;;;;;;;;;;;;;;-144.99;100.00;52615.25;5034029;28;20403;-76
2021/12/24 05:59:56;;;;;;;;;;;;;;;-144.99;100.00;52631.53;5042859;28;19976;-78
2021/12/24 06:02:22;;;;;;;;;;;;;;;-144.99;100.00;52637.66;5043725;28;19978;-77
2021/12/24 06:04:50;;;;;;;;;;;;;;;-144.99;100.00;52635.63;5032996;28;20201;-77
2021/12/24 06:07:16;;;;;;;;;;;;;;;-144.99;100.00;52662.13;5034757;28;19982;-77
2021/12/24 06:09:43;;;;;;;;;;;;;;;-144.99;100.00;52658.03;5024905;28;19978;-77
2021/12/24 06:12:09;;;;;;;;;;;;;;;-144.99;100.00;52590.78;5028687;28;20513;-77
2021/12/24 06:14:36;;;;;;;;;;;;;;;-144.99;100.00;52651.94;5028255;28;19993;-77
2021/12/24 06:17:04;;;;;;;;;;;;;;;-144.99;100.00;52696.78;5028652;28;19986;-76
2021/12/24 06:19:31;;;;;;;;;;;;;;;-144.99;100.00;52637.66;5028286;28;19977;-77
2021/12/24 06:21:59;;;;;;;;;;;;;;;-144.99;100.00;52660.09;5028459;28;20458;-77
2021/12/24 06:24:25;;;;;;;;;;;;;;;-144.99;100.00;52623.38;5025152;28;19997;-76
2021/12/24 06:26:52;;;;;;;;;;;;;;;-144.99;100.00;52643.78;5029664;28;20503;-73
2021/12/24 06:29:20;;;;;;;;;;;;;;;-144.99;100.00;52643.78;5029732;28;19993;-75
2021/12/24 06:31:47;;;;;;;;;;;;;;;-144.99;100.00;52627.47;5029179;28;19978;-75
2021/12/24 06:34:13;;;;;;;;;;;;;;;-144.99;100.00;52647.84;5030153;28;20379;-77
2021/12/24 06:36:43;;;;;;;;;;;;;;;-144.99;100.00;52627.47;5030139;28;19978;-77
2021/12/24 06:39:11;;;;;;;;;;;;;;;-144.99;100.00;52651.94;5027736;28;20425;-74
2021/12/24 06:41:37;;;;;;;;;;;;;;;-144.99;100.00;52635.63;5029458;28;19977;-77
2021/12/24 06:44:05;;;;;;;;;;;;;;;-144.99;100.00;52623.38;5030006;28;20001;-78
2021/12/24 06:46:32;;;;;;;;;;;;;;;-144.99;100.00;52635.63;5045476;28;20020;-79
2021/12/24 06:48:58;;;;;;;;;;;;;;;-144.99;100.00;52635.63;5041078;28;20016;-81
2021/12/24 06:51:25;;;;;;;;;;;;;;;-144.99;100.00;52649.88;5046096;28;20208;-80
2021/12/24 06:53:51;;;;;;;;;;;;;;;-144.99;100.00;52631.53;5040605;28;19993;-79
2021/12/24 06:56:19;;;;;;;;;;;;;;;-144.99;100.00;52664.16;5040936;28;19978;-79
2021/12/24 06:58:45;;;;;;;;;;;;;;;-144.99;100.00;52627.47;5040245;28;19984;-78
2021/12/24 07:01:12;;;;;;;;;;;;;;;-144.99;100.00;52653.97;5029567;28;20972;-79
2021/12/24 07:03:38;;;;;;;;;;;;;;;-144.99;100.00;52623.38;5028013;28;20004;-78
2021/12/24 07:06:05;;;;;;;;;;;;;;;-144.99;100.00;52676.38;5028742;28;20350;-79
2021/12/24 07:08:31;;;;;;;;;;;;;;;-144.99;100.00;52617.28;5027900;28;19988;-76
2021/12/24 07:10:57;;;;;;;;;;;;;;;-144.99;100.00;52664.16;5033934;28;19977;-79
2021/12/24 07:13:25;;;;;;;;;;;;;;;-144.99;100.00;52627.47;5028722;28;20514;-78
2021/12/24 07:15:52;;;;;;;;;;;;;;;-144.99;100.00;52631.53;5031665;28;19973;-78
2021/12/24 07:18:18;;;;;;;;;;;;;;;-144.99;100.00;52664.16;5029259;28;19988;-75
2021/12/24 07:20:45;;;;;;;;;;;;;;;-144.99;100.00;52639.69;5029683;28;19982;-77
2021/12/24 07:23:11;;;;;;;;;;;;;;;-144.99;100.00;52590.78;5044383;22;20009;-72
2021/12/24 07:25:37;;;;;;;;;;;;;;;-144.99;100.00;52635.63;5089409;28;20084;-72
2021/12/24 07:28:04;;;;;;;;;;;;;;;-144.99;100.00;52668.22;5090443;28;20372;-74
2021/12/24 07:30:32;;;;;;;;;;;;;;;-144.99;100.00;52651.94;5090466;28;19984;-73
2021/12/24 07:32:59;;;;;;;;;;;;;;;-144.99;100.00;52639.69;5090144;28;19961;-73
2021/12/24 07:35:25;;;;;;;;;;;;;;;-144.99;100.00;52651.94;5089159;28;19972;-74
2021/12/24 07:37:51;;;;;;;;;;;;;;;-144.99;100.00;52651.94;5088587;28;19980;-74
2021/12/24 07:40:19;;;;;;;;;;;;;;;-144.99;100.00;52627.47;5089137;28;20319;-74
2021/12/24 07:42:46;;;;;;;;;;;;;;;-144.99;100.00;52647.84;5088315;28;20495;-73
2021/12/24 07:45:13;;;;;;;;;;;;;;;-144.99;100.00;52656.00;5089528;28;20382;-72
2021/12/24 07:47:43;;;;;;;;;;;;;;;-144.99;100.00;52635.63;5090660;28;19976;-73
2021/12/24 07:51:56;;;;;;;;;;;;;;;-144.99;100.00;52668.22;5081867;28;20491;-73
2021/12/24 07:53:03;;;;;;;;;;;;;;;-144.99;100.00;52682.50;5086803;28;20048;-70
2021/12/24 07:55:30;;;;;;;;;;;;;;;-144.99;100.00;52653.97;5081016;28;20067;-74
2021/12/24 07:57:56;;;;;;;;;;;;;;;-144.99;100.00;52668.22;5088957;28;19981;-73
2021/12/24 08:00:26;;;;;;;;;;;;;;;-144.99;100.00;52635.63;5091140;28;19977;-73
2021/12/24 08:02:53;;;;;;;;;;;;;;;-144.99;100.00;52651.94;5090558;28;19984;-74
2021/12/24 08:05:22;;;;;;;;;;;;;;;-144.99;100.00;52639.69;5087364;28;20506;-73
2021/12/24 08:07:49;;;;;;;;;;;;;;;-144.99;100.00;52641.72;5089919;28;20435;-73
2021/12/24 08:10:15;;;;;;;;;;;;;;;-144.99;100.00;52656.00;5088486;28;19977;-72
2021/12/24 08:12:42;;;;;;;;;;;;;;;-144.99;100.00;52647.84;5089012;28;19976;-73
2021/12/24 08:15:09;;;;;;;;;;;;;;;-144.99;100.00;52662.13;5087148;28;20007;-73
2021/12/24 08:17:35;;;;;;;;;;;;;;;-144.99;100.00;52639.69;5089357;28;19984;-74
2021/12/24 08:20:04;;;;;;;;;;;;;;;-144.99;100.00;52658.03;5090310;28;19977;-74
2021/12/24 08:22:30;;;;;;;;;;;;;;;-144.99;100.00;52668.22;5089021;28;19948;-74
2021/12/24 08:24:56;;;;;;;;;;;;;;;-144.99;100.00;52603.00;5085612;28;20005;-74
2021/12/24 08:27:23;;;;;;;;;;;;;;;-144.99;100.00;52696.78;5090133;28;19977;-74
2021/12/24 08:29:49;;;;;;;;;;;;;;;-144.99;100.00;52603.00;5089772;28;20063;-73
2021/12/24 08:32:15;;;;;;;;;;;;;;;-144.99;100.00;52639.69;5089382;28;19976;-72
2021/12/24 08:34:43;;;;;;;;;;;;;;;-144.99;100.00;52668.22;5087934;28;19992;-73
2021/12/24 08:37:11;;;;;;;;;;;;;;;-144.99;100.00;52651.94;5089973;28;19976;-74
2021/12/24 08:39:37;;;;;;;;;;;;;;;-144.99;100.00;52619.31;5088277;28;19987;-74
2021/12/24 08:42:04;;;;;;;;;;;;;;;-144.99;100.00;52621.34;5087426;28;20472;-74
2021/12/24 08:44:31;;;;;;;;;;;;;;;-144.99;100.00;52647.84;5088329;28;20000;-73
2021/12/24 08:47:00;;;;;;;;;;;;;;;-144.99;100.00;52635.63;5089731;28;19976;-74
2021/12/24 08:49:27;;;;;;;;;;;;;;;-144.99;100.00;52613.19;5089250;28;20057;-74
2021/12/24 08:51:54;;;;;;;;;;;;;;;-144.99;100.00;52643.78;5089216;28;20399;-75
2021/12/24 08:54:24;;;;;;;;;;;;;;;-144.99;100.00;52639.69;5087990;28;20083;-74
2021/12/24 08:56:50;;;;;;;;;;;;;;;-144.99;100.00;52627.47;5090246;28;19992;-75
2021/12/24 08:59:17;;;;;;;;;;;;;;;-144.99;100.00;52625.44;5093411;28;19999;-74
2021/12/24 09:01:43;;;;;;;;;;;;;;;-144.99;100.00;52668.22;5093147;28;19972;-73
2021/12/24 09:04:09;;;;;;;;;;;;;;;-144.99;100.00;52631.53;5091044;28;20002;-73
2021/12/24 09:06:36;;;;;;;;;;;;;;;-144.99;100.00;52615.25;5092972;28;19980;-74
2021/12/24 09:09:02;;;;;;;;;;;;;;;-144.99;100.00;52619.31;5090375;28;19977;-74
2021/12/24 09:11:30;;;;;;;;;;;;;;;-144.99;100.00;52623.38;5092954;28;19981;-73
2021/12/24 09:13:56;;;;;;;;;;;;;;;-144.99;100.00;52623.38;5090451;28;19996;-74
2021/12/24 09:16:22;;;;;;;;;;;;;;;-144.99;100.00;52594.84;5093102;28;19977;-73
2021/12/24 09:18:56;;;;;;;;;;;;;;;-144.99;100.00;52656.00;5092532;28;20039;-74
2021/12/24 09:21:23;;;;;;;;;;;;;;;-144.99;100.00;52631.53;5092737;28;19980;-74
2021/12/24 09:23:49;;;;;;;;;;;;;;;-144.99;100.00;52627.47;5085114;28;20000;-74
2021/12/24 09:26:23;;;;;;;;;;;;;;;-144.99;100.00;52627.47;5094365;28;19983;-74
2021/12/24 09:28:51;;;;;;;;;;;;;;;-144.99;100.00;52639.69;5095256;28;20069;-74
2021/12/24 09:31:17;;;;;;;;;;;;;;;-144.99;100.00;52668.22;5095621;28;20009;-75
2021/12/24 09:33:52;;;;;;;;;;;;;;;-144.99;100.00;52656.00;5092335;28;19993;-75
2021/12/24 09:36:24;;;;;;;;;;;;;;;-144.99;100.00;52643.78;5097065;28;19983;-74
2021/12/24 09:38:50;;;;;;;;;;;;;;;-144.99;100.00;52586.69;5100767;28;20019;-74
2021/12/24 09:41:17;;;;;;;;;;;;;;;-144.99;100.00;52662.13;5096873;28;20023;-75
2021/12/24 09:43:43;;;;;;;;;;;;;;;-144.99;100.00;52639.69;5085531;28;20000;-75
2021/12/24 09:46:12;;;;;;;;;;;;;;;-144.99;100.00;52684.53;5094989;28;20231;-73
2021/12/24 09:48:38;;;;;;;;;;;;;;;-144.99;100.00;52647.84;5094232;28;19981;-74
2021/12/24 09:51:05;;;;;;;;;;;;;;;-144.99;100.00;52631.53;5093659;28;20019;-74
2021/12/24 09:53:32;;;;;;;;;;;;;;;-144.99;100.00;52643.78;5092529;28;20002;-74
2021/12/24 09:55:58;;;;;;;;;;;;;;;-144.99;100.00;52676.38;5087880;28;19979;-72
2021/12/24 09:58:25;;;;;;;;;;;;;;;-144.99;100.00;52631.53;5094618;28;20846;-73
2021/12/24 10:00:51;;;;;;;;;;;;;;;-144.99;100.00;52643.78;5094329;28;19980;-73
2021/12/24 10:03:29;;;;;;;;;;;;;;;-144.99;100.00;52656.00;5092642;28;20025;-72
2021/12/24 10:05:57;;;;;;;;;;;;;;;-144.99;100.00;52656.00;5090134;28;20401;-74
2021/12/24 10:08:25;;;;;;;;;;;;;;;-144.99;100.00;52623.38;5087991;28;19984;-74
2021/12/24 10:10:54;;;;;;;;;;;;;;;-144.99;100.00;52682.50;5094870;28;19984;-74
2021/12/24 10:13:31;;;;;;;;;;;;;;;-144.99;100.00;52639.69;5093962;28;20095;-73
2021/12/24 10:15:59;;;;;;;;;;;;;;;-144.99;100.00;52653.97;5096017;28;20178;-73
2021/12/24 10:18:32;;;;;;;;;;;;;;;-144.99;100.00;52668.22;5093773;28;20034;-73
2021/12/24 10:20:59;;;;;;;;;;;;;;;-144.99;100.00;52688.63;5093821;28;20029;-72
2021/12/24 10:23:39;;;;;;;;;;;;;;;-144.99;100.00;52635.63;5092415;28;20000;-75
2021/12/24 10:26:11;;;;;;;;;;;;;;;-144.99;100.00;52656.00;5090563;28;20357;-74
2021/12/24 10:28:37;;;;;;;;;;;;;;;-144.99;100.00;52672.31;5091979;28;19974;-73
2021/12/24 10:31:04;;;;;;;;;;;;;;;-144.99;100.00;52658.03;5092442;28;20045;-74
2021/12/24 10:33:31;;;;;;;;;;;;;;;-144.99;100.00;52639.69;5091969;28;20054;-73
2021/12/24 10:36:01;;;;;;;;;;;;;;;-144.99;100.00;52672.31;5092473;28;19973;-74
2021/12/24 10:38:27;;;;;;;;;;;;;;;-144.99;100.00;52625.44;5090659;28;20498;-72
2021/12/24 10:40:55;;;;;;;;;;;;;;;-144.99;100.00;52656.00;5090574;28;19973;-74
2021/12/24 10:43:25;;;;;;;;;;;;;;;-144.99;100.00;52668.22;5090720;28;19998;-72
2021/12/24 10:46:06;;;;;;;;;;;;;;;-144.99;100.00;52643.78;5086725;28;20068;-74
2021/12/24 10:48:34;;;;;;;;;;;;;;;-144.99;100.00;52631.53;5088190;28;19983;-74
2021/12/24 10:51:04;;;;;;;;;;;;;;;-144.99;100.00;52664.16;5091239;28;20477;-72
2021/12/24 10:53:34;;;;;;;;;;;;;;;-144.99;100.00;52647.84;5089837;28;20024;-74
2021/12/24 10:56:01;;;;;;;;;;;;;;;-144.99;100.00;52631.53;5091239;28;19972;-75
2021/12/24 10:58:29;;;;;;;;;;;;;;;-144.99;100.00;52660.09;5090645;28;20300;-74
2021/12/24 11:00:57;;;;;;;;;;;;;;;-144.99;100.00;52651.94;5088209;28;19979;-75
2021/12/24 11:03:24;;;;;;;;;;;;;;;-144.99;100.00;52653.97;5088745;28;19996;-72
2021/12/24 11:05:53;;;;;;;;;;;;;;;-144.99;100.00;52651.94;5090563;28;19996;-74
2021/12/24 11:08:20;;;;;;;;;;;;;;;-144.99;100.00;52645.81;5088373;28;19985;-75
2021/12/24 11:10:48;;;;;;;;;;;;;;;-144.99;100.00;52664.16;5088683;28;19977;-74
2021/12/24 11:13:15;;;;;;;;;;;;;;;-144.99;100.00;52666.19;5090512;28;20003;-74
2021/12/24 11:15:43;;;;;;;;;;;;;;;-144.99;100.00;52668.22;5089090;28;20478;-75
2021/12/24 11:18:14;;;;;;;;;;;;;;;-144.99;100.00;52643.78;5090372;28;19987;-74
2021/12/24 11:20:40;;;;;;;;;;;;;;;-144.99;100.00;52674.34;5088411;28;20335;-73
2021/12/24 11:23:09;;;;;;;;;;;;;;;-144.99;100.00;52635.63;5082572;28;20003;-72
2021/12/24 11:25:37;;;;;;;;;;;;;;;-144.99;100.00;52645.81;5088047;28;20011;-75
2021/12/24 11:28:04;;;;;;;;;;;;;;;-144.99;100.00;52631.53;5088454;28;20459;-74
2021/12/24 11:30:32;;;;;;;;;;;;;;;-144.99;100.00;52651.94;5086910;28;19979;-74
2021/12/24 11:32:58;;;;;;;;;;;;;;;-144.99;100.00;52603.00;5086630;28;19972;-73
2021/12/24 11:35:25;;;;;;;;;;;;;;;-144.99;100.00;52643.78;5089673;28;20026;-75
2021/12/24 11:37:53;;;;;;;;;;;;;;;-144.99;100.00;52664.16;5096004;28;19972;-77
2021/12/24 11:40:21;;;;;;;;;;;;;;;-144.99;100.00;52635.63;5108364;28;19980;-74
2021/12/24 11:42:50;;;;;;;;;;;;;;;-144.99;100.00;52656.00;5090668;28;19984;-74
2021/12/24 11:45:17;;;;;;;;;;;;;;;-144.99;100.00;52631.53;5089815;28;20004;-74
2021/12/24 11:47:43;;;;;;;;;;;;;;;-144.99;100.00;52627.47;5091048;28;19989;-74
2021/12/24 11:50:10;;;;;;;;;;;;;;;-144.99;100.00;52639.69;5090762;28;20462;-74
2021/12/24 11:52:36;;;;;;;;;;;;;;;-144.99;100.00;52645.81;5090973;28;19981;-75
2021/12/24 11:55:02;;;;;;;;;;;;;;;-144.99;100.00;52680.47;5086869;28;20580;-73
2021/12/24 11:57:30;;;;;;;;;;;;;;;-144.99;100.00;52670.28;5088554;28;19984;-74
2021/12/24 11:59:57;;;;;;;;;;;;;;;-144.99;100.00;52647.84;5091324;28;20461;-75
2021/12/24 12:02:37;;;;;;;;;;;;;;;-144.99;100.00;52643.78;5090449;28;19983;-75
2021/12/24 12:05:13;;;;;;;;;;;;;;;-144.99;100.00;52635.63;5085022;28;20067;-74
2021/12/24 12:07:40;;;;;;;;;;;;;;;-144.99;100.00;52660.09;5089571;28;19976;-76
2021/12/24 12:10:07;;;;;;;;;;;;;;;-144.99;100.00;52660.09;5084392;28;20026;-74
2021/12/24 12:12:35;;;;;;;;;;;;;;;-144.99;100.00;52633.59;5084018;28;19985;-76
2021/12/24 12:15:20;;;;;;;;;;;;;;;-144.99;100.00;52664.16;5087989;28;19988;-76
2021/12/24 12:17:50;;;;;;;;;;;;;;;-144.99;100.00;52619.31;5089182;28;20059;-74
2021/12/24 12:20:35;;;;;;;;;;;;;;;-144.99;100.00;52682.50;5090268;28;20008;-73
2021/12/24 12:23:02;;;;;;;;;;;;;;;-144.99;100.00;52631.53;5087817;28;20342;-74
2021/12/24 12:25:33;;;;;;;;;;;;;;;-144.99;100.00;52647.84;5087634;28;19996;-75
2021/12/24 12:28:02;;;;;;;;;;;;;;;-144.99;100.00;52643.78;5089806;28;19987;-73
2021/12/24 12:30:30;;;;;;;;;;;;;;;-144.99;100.00;52668.22;5094146;28;20029;-74
2021/12/24 12:33:05;;;;;;;;;;;;;;;-144.99;100.00;52619.31;5094159;28;19976;-74
2021/12/24 12:35:36;;;;;;;;;;;;;;;-144.99;100.00;52651.94;5090358;28;20382;-75
2021/12/24 12:38:02;;;;;;;;;;;;;;;-144.99;100.00;52617.28;5095216;28;19957;-75
2021/12/24 12:40:31;;;;;;;;;;;;;;;-144.99;100.00;52647.84;5091045;28;19964;-73
2021/12/24 12:43:04;;;;;;;;;;;;;;;-144.99;100.00;52647.84;5088233;28;19981;-74
2021/12/24 12:45:50;;;;;;;;;;;;;;;-144.99;100.00;52676.38;5083834;28;19997;-75
2021/12/24 12:48:23;;;;;;;;;;;;;;;-144.99;100.00;52619.31;5097990;28;19984;-75
2021/12/24 12:50:51;;;;;;;;;;;;;;;-144.99;100.00;52686.59;5093331;28;19987;-75
2021/12/24 12:53:25;;;;;;;;;;;;;;;-144.99;100.00;52645.81;5092489;28;19980;-73
2021/12/24 12:56:09;;;;;;;;;;;;;;;-144.99;100.00;52678.44;5087222;28;20008;-75
2021/12/24 12:58:37;;;;;;;;;;;;;;;-144.99;100.00;52594.84;5092501;28;19981;-74
2021/12/24 13:01:04;;;;;;;;;;;;;;;-144.99;100.00;52639.69;5092797;28;20362;-74
2021/12/24 13:03:31;;;;;;;;;;;;;;;-144.99;100.00;52635.63;5092665;28;20067;-74
2021/12/24 13:05:59;;;;;;;;;;;;;;;-144.99;100.00;52653.97;5092918;28;20008;-73
2021/12/24 13:08:27;;;;;;;;;;;;;;;-144.99;100.00;52623.38;5092516;28;19984;-73
2021/12/24 13:10:57;;;;;;;;;;;;;;;-144.99;100.00;52639.69;5093178;28;20528;-73
2021/12/24 13:13:24;;;;;;;;;;;;;;;-144.99;100.00;52656.00;5092638;28;20026;-73
2021/12/24 13:15:52;;;;;;;;;;;;;;;-144.99;100.00;52660.09;5091199;28;20438;-73
2021/12/24 13:18:25;;;;;;;;;;;;;;;-144.99;100.00;52680.47;5092640;28;19980;-72
2021/12/24 13:23:32;;;;;;;;;;;;;;;-144.99;100.00;52623.38;5086926;28;20339;-73
2021/12/24 13:26:07;;;;;;;;;;;;;;;-144.99;100.00;52631.53;5105310;22;19997;-76
2021/12/24 13:28:33;;;;;;;;;;;;;;;-144.99;100.00;52688.63;5077208;28;19981;-76
2021/12/24 13:31:12;;;;;;;;;;;;;;;-144.99;100.00;52631.53;5068715;28;20346;-76
2021/12/24 13:33:39;;;;;;;;;;;;;;;-144.99;100.00;52660.09;5063818;28;20005;-76